Bowbells, North Dakota
Current Conditions -  °F | °C
As of 3:35 PM on Monday 24 Nov 2014 (Local Time) from K08D Reporting Station
Broken Clouds Broken Clouds  
Wind Chill:   Ceiling: 6500
Heat Index: 19°   Visibility: 10mi
Dew Point: 16°   Wind: 15mph
Humidity: 86%   Direction: 260°W
Pressure: 29.94"   Gusts: NA
Location:  48.8°N, 102.25°W
Report Text: K08D 242135Z AUTO 26013KT 10SM BKN065 M07/M09 A2994 RMK AO2
Loading
Personal Weather Stations






























Interactive Weather Map New forecast layout! Learn more

10-Day Weather Forecast

Advertisements
Track Severe Weather on mobile